sensor_id;sensor_type;location;lat;lon;timestamp;P1;durP1;ratioP1;P2;durP2;ratioP2
56511;SDS011;42408;53.238;5.686;2023-02-22T00:00:34;65.63;;;31.83;;
56511;SDS011;42408;53.238;5.686;2023-02-22T00:03:17;64.53;;;32.67;;
56511;SDS011;42408;53.238;5.686;2023-02-22T00:05:48;66.35;;;32.63;;
56511;SDS011;42408;53.238;5.686;2023-02-22T00:08:18;65.28;;;33.03;;
56511;SDS011;42408;53.238;5.686;2023-02-22T00:10:48;57.95;;;32.38;;
56511;SDS011;42408;53.238;5.686;2023-02-22T00:13:17;64.60;;;32.33;;
56511;SDS011;42408;53.238;5.686;2023-02-22T00:15:44;65.22;;;31.92;;
56511;SDS011;42408;53.238;5.686;2023-02-22T00:18:13;59.38;;;31.38;;
56511;SDS011;42408;53.238;5.686;2023-02-22T00:20:40;66.43;;;30.52;;
56511;SDS011;42408;53.238;5.686;2023-02-22T00:23:07;69.68;;;32.53;;
56511;SDS011;42408;53.238;5.686;2023-02-22T00:25:38;64.85;;;30.70;;
56511;SDS011;42408;53.238;5.686;2023-02-22T00:28:03;63.00;;;30.57;;
56511;SDS011;42408;53.238;5.686;2023-02-22T00:30:29;65.23;;;31.20;;
56511;SDS011;42408;53.238;5.686;2023-02-22T00:32:57;70.70;;;31.00;;
56511;SDS011;42408;53.238;5.686;2023-02-22T00:35:24;66.18;;;32.08;;
56511;SDS011;42408;53.238;5.686;2023-02-22T00:37:52;68.25;;;29.65;;
56511;SDS011;42408;53.238;5.686;2023-02-22T00:40:21;65.20;;;30.48;;
56511;SDS011;42408;53.238;5.686;2023-02-22T00:42:49;66.28;;;30.33;;
56511;SDS011;42408;53.238;5.686;2023-02-22T00:45:16;66.30;;;29.63;;
56511;SDS011;42408;53.238;5.686;2023-02-22T00:47:45;69.85;;;30.23;;
56511;SDS011;42408;53.238;5.686;2023-02-22T00:50:11;63.03;;;30.07;;
56511;SDS011;42408;53.238;5.686;2023-02-22T00:52:37;62.38;;;29.00;;
56511;SDS011;42408;53.238;5.686;2023-02-22T00:55:04;59.43;;;27.73;;
56511;SDS011;42408;53.238;5.686;2023-02-22T00:57:31;58.95;;;27.70;;
56511;SDS011;42408;53.238;5.686;2023-02-22T01:00:04;61.88;;;26.73;;
56511;SDS011;42408;53.238;5.686;2023-02-22T01:05:05;61.63;;;28.40;;
56511;SDS011;42408;53.238;5.686;2023-02-22T01:07:31;56.67;;;27.20;;
56511;SDS011;42408;53.238;5.686;2023-02-22T01:09:57;59.73;;;26.90;;
56511;SDS011;42408;53.238;5.686;2023-02-22T01:12:23;56.73;;;26.47;;
56511;SDS011;42408;53.238;5.686;2023-02-22T01:14:48;52.23;;;23.93;;
56511;SDS011;42408;53.238;5.686;2023-02-22T01:17:14;52.30;;;23.90;;
56511;SDS011;42408;53.238;5.686;2023-02-22T01:19:40;54.53;;;24.27;;
56511;SDS011;42408;53.238;5.686;2023-02-22T01:22:07;47.42;;;23.85;;
56511;SDS011;42408;53.238;5.686;2023-02-22T01:24:33;54.47;;;23.60;;
56511;SDS011;42408;53.238;5.686;2023-02-22T01:26:59;51.53;;;25.40;;
56511;SDS011;42408;53.238;5.686;2023-02-22T01:29:26;49.72;;;23.17;;
56511;SDS011;42408;53.238;5.686;2023-02-22T01:31:53;50.33;;;23.33;;
56511;SDS011;42408;53.238;5.686;2023-02-22T01:34:20;51.80;;;23.15;;
56511;SDS011;42408;53.238;5.686;2023-02-22T01:39:12;44.72;;;20.60;;
56511;SDS011;42408;53.238;5.686;2023-02-22T01:41:38;45.97;;;20.60;;
56511;SDS011;42408;53.238;5.686;2023-02-22T01:47:01;43.97;;;20.98;;
56511;SDS011;42408;53.238;5.686;2023-02-22T01:49:30;43.90;;;21.75;;
56511;SDS011;42408;53.238;5.686;2023-02-22T01:52:06;49.75;;;21.80;;
56511;SDS011;42408;53.238;5.686;2023-02-22T01:54:35;41.03;;;19.02;;
56511;SDS011;42408;53.238;5.686;2023-02-22T02:00:03;43.72;;;19.33;;
56511;SDS011;42408;53.238;5.686;2023-02-22T02:02:36;36.95;;;19.48;;
56511;SDS011;42408;53.238;5.686;2023-02-22T02:05:05;43.88;;;20.85;;
56511;SDS011;42408;53.238;5.686;2023-02-22T02:07:32;43.55;;;21.83;;
56511;SDS011;42408;53.238;5.686;2023-02-22T02:10:00;42.22;;;19.98;;
56511;SDS011;42408;53.238;5.686;2023-02-22T02:12:29;46.25;;;20.10;;
56511;SDS011;42408;53.238;5.686;2023-02-22T02:17:52;49.88;;;22.05;;
56511;SDS011;42408;53.238;5.686;2023-02-22T02:26:34;45.13;;;21.90;;
56511;SDS011;42408;53.238;5.686;2023-02-22T02:29:39;49.88;;;22.48;;
56511;SDS011;42408;53.238;5.686;2023-02-22T02:32:47;44.17;;;21.30;;
56511;SDS011;42408;53.238;5.686;2023-02-22T02:38:38;46.20;;;20.20;;
56511;SDS011;42408;53.238;5.686;2023-02-22T02:41:04;44.67;;;19.53;;
56511;SDS011;42408;53.238;5.686;2023-02-22T02:43:41;42.60;;;20.45;;
56511;SDS011;42408;53.238;5.686;2023-02-22T02:46:33;48.53;;;22.05;;
56511;SDS011;42408;53.238;5.686;2023-02-22T02:49:10;43.80;;;21.52;;
56511;SDS011;42408;53.238;5.686;2023-02-22T02:51:40;49.00;;;22.92;;
56511;SDS011;42408;53.238;5.686;2023-02-22T02:54:08;49.25;;;22.90;;
56511;SDS011;42408;53.238;5.686;2023-02-22T02:56:35;46.10;;;20.98;;
56511;SDS011;42408;53.238;5.686;2023-02-22T02:59:01;50.10;;;20.63;;
56511;SDS011;42408;53.238;5.686;2023-02-22T03:07:44;49.35;;;22.02;;
56511;SDS011;42408;53.238;5.686;2023-02-22T03:10:42;42.42;;;20.27;;
56511;SDS011;42408;53.238;5.686;2023-02-22T03:23:54;51.05;;;21.45;;
56511;SDS011;42408;53.238;5.686;2023-02-22T03:29:08;42.08;;;20.33;;
56511;SDS011;42408;53.238;5.686;2023-02-22T03:31:39;48.50;;;21.75;;
56511;SDS011;42408;53.238;5.686;2023-02-22T03:34:10;43.70;;;21.08;;
56511;SDS011;42408;53.238;5.686;2023-02-22T03:36:50;45.55;;;21.05;;
56511;SDS011;42408;53.238;5.686;2023-02-22T03:39:20;41.17;;;19.73;;
56511;SDS011;42408;53.238;5.686;2023-02-22T03:41:55;41.50;;;20.42;;
56511;SDS011;42408;53.238;5.686;2023-02-22T03:44:42;44.17;;;22.25;;
56511;SDS011;42408;53.238;5.686;2023-02-22T03:47:12;42.72;;;20.33;;
56511;SDS011;42408;53.238;5.686;2023-02-22T03:49:44;45.88;;;20.25;;
56511;SDS011;42408;53.238;5.686;2023-02-22T03:52:19;43.90;;;19.60;;
56511;SDS011;42408;53.238;5.686;2023-02-22T03:54:48;41.88;;;20.88;;
56511;SDS011;42408;53.238;5.686;2023-02-22T03:57:21;48.15;;;21.65;;
56511;SDS011;42408;53.238;5.686;2023-02-22T03:59:51;44.88;;;21.42;;
56511;SDS011;42408;53.238;5.686;2023-02-22T04:02:17;42.93;;;19.80;;
56511;SDS011;42408;53.238;5.686;2023-02-22T04:04:44;41.33;;;20.10;;
56511;SDS011;42408;53.238;5.686;2023-02-22T04:07:11;39.88;;;19.27;;
56511;SDS011;42408;53.238;5.686;2023-02-22T04:09:36;40.60;;;19.67;;
56511;SDS011;42408;53.238;5.686;2023-02-22T04:12:02;38.10;;;20.23;;
56511;SDS011;42408;53.238;5.686;2023-02-22T04:14:28;38.50;;;18.97;;
56511;SDS011;42408;53.238;5.686;2023-02-22T04:16:54;43.33;;;20.02;;
56511;SDS011;42408;53.238;5.686;2023-02-22T04:19:20;41.53;;;19.70;;
56511;SDS011;42408;53.238;5.686;2023-02-22T04:21:45;38.83;;;20.40;;
56511;SDS011;42408;53.238;5.686;2023-02-22T04:24:11;45.53;;;20.23;;
56511;SDS011;42408;53.238;5.686;2023-02-22T04:26:37;39.93;;;18.70;;
56511;SDS011;42408;53.238;5.686;2023-02-22T04:29:03;39.57;;;20.00;;
56511;SDS011;42408;53.238;5.686;2023-02-22T04:31:29;41.50;;;19.60;;
56511;SDS011;42408;53.238;5.686;2023-02-22T04:33:55;43.33;;;19.35;;
56511;SDS011;42408;53.238;5.686;2023-02-22T04:36:20;35.57;;;19.27;;
56511;SDS011;42408;53.238;5.686;2023-02-22T04:38:46;41.53;;;18.90;;
56511;SDS011;42408;53.238;5.686;2023-02-22T04:41:12;42.65;;;20.15;;
56511;SDS011;42408;53.238;5.686;2023-02-22T04:43:38;35.77;;;18.80;;
56511;SDS011;42408;53.238;5.686;2023-02-22T04:46:04;42.87;;;19.63;;
56511;SDS011;42408;53.238;5.686;2023-02-22T04:48:30;36.10;;;18.43;;
56511;SDS011;42408;53.238;5.686;2023-02-22T04:50:56;35.85;;;18.00;;
56511;SDS011;42408;53.238;5.686;2023-02-22T04:53:21;35.53;;;17.77;;
56511;SDS011;42408;53.238;5.686;2023-02-22T04:55:47;33.50;;;17.37;;
56511;SDS011;42408;53.238;5.686;2023-02-22T04:58:13;33.63;;;17.23;;
56511;SDS011;42408;53.238;5.686;2023-02-22T05:00:38;34.93;;;18.10;;
56511;SDS011;42408;53.238;5.686;2023-02-22T05:03:04;35.87;;;18.40;;
56511;SDS011;42408;53.238;5.686;2023-02-22T05:05:29;35.93;;;16.60;;
56511;SDS011;42408;53.238;5.686;2023-02-22T05:07:55;35.83;;;17.47;;
56511;SDS011;42408;53.238;5.686;2023-02-22T05:10:21;31.83;;;16.93;;
56511;SDS011;42408;53.238;5.686;2023-02-22T05:12:47;30.53;;;16.53;;
56511;SDS011;42408;53.238;5.686;2023-02-22T05:15:16;30.07;;;16.00;;
56511;SDS011;42408;53.238;5.686;2023-02-22T05:17:44;29.85;;;15.48;;
56511;SDS011;42408;53.238;5.686;2023-02-22T05:20:31;30.88;;;15.57;;
56511;SDS011;42408;53.238;5.686;2023-02-22T05:22:58;28.73;;;16.10;;
56511;SDS011;42408;53.238;5.686;2023-02-22T05:25:25;28.50;;;15.90;;
56511;SDS011;42408;53.238;5.686;2023-02-22T05:27:52;29.63;;;14.43;;
56511;SDS011;42408;53.238;5.686;2023-02-22T05:30:22;29.38;;;15.63;;
56511;SDS011;42408;53.238;5.686;2023-02-22T05:32:50;28.23;;;14.90;;
56511;SDS011;42408;53.238;5.686;2023-02-22T05:35:16;31.00;;;15.52;;
56511;SDS011;42408;53.238;5.686;2023-02-22T05:37:46;29.73;;;16.20;;
56511;SDS011;42408;53.238;5.686;2023-02-22T05:40:12;25.17;;;14.30;;
56511;SDS011;42408;53.238;5.686;2023-02-22T05:42:41;27.88;;;14.60;;
56511;SDS011;42408;53.238;5.686;2023-02-22T05:45:07;25.20;;;14.17;;
56511;SDS011;42408;53.238;5.686;2023-02-22T05:47:33;26.83;;;14.50;;
56511;SDS011;42408;53.238;5.686;2023-02-22T05:49:58;25.53;;;15.37;;
56511;SDS011;42408;53.238;5.686;2023-02-22T05:54:51;27.95;;;15.35;;
56511;SDS011;42408;53.238;5.686;2023-02-22T05:57:16;32.67;;;16.03;;
56511;SDS011;42408;53.238;5.686;2023-02-22T05:59:42;25.97;;;13.97;;
56511;SDS011;42408;53.238;5.686;2023-02-22T06:02:08;25.30;;;14.60;;
56511;SDS011;42408;53.238;5.686;2023-02-22T06:04:34;29.20;;;15.80;;
56511;SDS011;42408;53.238;5.686;2023-02-22T06:06:59;30.87;;;16.23;;
56511;SDS011;42408;53.238;5.686;2023-02-22T06:09:25;29.40;;;14.60;;
56511;SDS011;42408;53.238;5.686;2023-02-22T06:11:50;27.23;;;15.73;;
56511;SDS011;42408;53.238;5.686;2023-02-22T06:14:16;28.13;;;14.23;;
56511;SDS011;42408;53.238;5.686;2023-02-22T06:16:42;25.97;;;14.57;;
56511;SDS011;42408;53.238;5.686;2023-02-22T06:19:07;26.93;;;14.03;;
56511;SDS011;42408;53.238;5.686;2023-02-22T06:21:33;29.00;;;14.53;;
56511;SDS011;42408;53.238;5.686;2023-02-22T06:24:00;29.27;;;15.23;;
56511;SDS011;42408;53.238;5.686;2023-02-22T06:26:28;26.25;;;14.43;;
56511;SDS011;42408;53.238;5.686;2023-02-22T06:28:54;28.40;;;16.33;;
56511;SDS011;42408;53.238;5.686;2023-02-22T06:31:20;31.00;;;15.33;;
56511;SDS011;42408;53.238;5.686;2023-02-22T06:33:45;26.10;;;15.23;;
56511;SDS011;42408;53.238;5.686;2023-02-22T06:36:11;28.60;;;16.53;;
56511;SDS011;42408;53.238;5.686;2023-02-22T06:38:36;26.87;;;16.00;;
56511;SDS011;42408;53.238;5.686;2023-02-22T06:41:02;31.40;;;15.73;;
56511;SDS011;42408;53.238;5.686;2023-02-22T06:43:28;31.03;;;15.87;;
56511;SDS011;42408;53.238;5.686;2023-02-22T06:45:54;34.40;;;16.30;;
56511;SDS011;42408;53.238;5.686;2023-02-22T06:48:19;31.10;;;16.00;;
56511;SDS011;42408;53.238;5.686;2023-02-22T06:50:45;32.10;;;16.90;;
56511;SDS011;42408;53.238;5.686;2023-02-22T06:53:11;32.70;;;17.37;;
56511;SDS011;42408;53.238;5.686;2023-02-22T06:55:36;36.23;;;18.33;;
56511;SDS011;42408;53.238;5.686;2023-02-22T06:58:02;33.00;;;18.77;;
56511;SDS011;42408;53.238;5.686;2023-02-22T07:00:29;34.92;;;19.48;;
56511;SDS011;42408;53.238;5.686;2023-02-22T07:02:56;37.10;;;19.20;;
56511;SDS011;42408;53.238;5.686;2023-02-22T07:05:22;39.58;;;21.15;;
56511;SDS011;42408;53.238;5.686;2023-02-22T07:07:50;36.45;;;19.20;;
56511;SDS011;42408;53.238;5.686;2023-02-22T07:10:22;44.78;;;23.95;;
56511;SDS011;42408;53.238;5.686;2023-02-22T07:12:50;41.67;;;22.95;;
56511;SDS011;42408;53.238;5.686;2023-02-22T07:15:19;44.05;;;25.65;;
56511;SDS011;42408;53.238;5.686;2023-02-22T07:17:47;46.70;;;23.05;;
56511;SDS011;42408;53.238;5.686;2023-02-22T07:20:14;49.03;;;26.38;;
56511;SDS011;42408;53.238;5.686;2023-02-22T07:22:40;49.97;;;26.85;;
56511;SDS011;42408;53.238;5.686;2023-02-22T07:25:06;53.30;;;26.00;;
56511;SDS011;42408;53.238;5.686;2023-02-22T07:27:35;51.63;;;25.98;;
56511;SDS011;42408;53.238;5.686;2023-02-22T07:30:06;47.13;;;26.73;;
56511;SDS011;42408;53.238;5.686;2023-02-22T07:32:40;52.15;;;27.20;;
56511;SDS011;42408;53.238;5.686;2023-02-22T07:35:12;54.35;;;28.92;;
56511;SDS011;42408;53.238;5.686;2023-02-22T07:37:46;63.10;;;30.85;;
56511;SDS011;42408;53.238;5.686;2023-02-22T07:40:12;59.67;;;28.40;;
56511;SDS011;42408;53.238;5.686;2023-02-22T07:45:16;61.75;;;32.05;;
56511;SDS011;42408;53.238;5.686;2023-02-22T07:47:42;63.50;;;33.05;;
56511;SDS011;42408;53.238;5.686;2023-02-22T07:50:09;60.00;;;32.38;;
56511;SDS011;42408;53.238;5.686;2023-02-22T07:52:36;68.40;;;34.58;;
56511;SDS011;42408;53.238;5.686;2023-02-22T07:55:02;65.17;;;31.73;;
56511;SDS011;42408;53.238;5.686;2023-02-22T07:57:28;65.97;;;33.80;;
56511;SDS011;42408;53.238;5.686;2023-02-22T07:59:53;67.20;;;35.00;;
56511;SDS011;42408;53.238;5.686;2023-02-22T08:02:19;72.40;;;36.10;;
56511;SDS011;42408;53.238;5.686;2023-02-22T08:04:45;83.68;;;38.33;;
56511;SDS011;42408;53.238;5.686;2023-02-22T08:07:11;87.87;;;41.40;;
56511;SDS011;42408;53.238;5.686;2023-02-22T08:09:36;89.67;;;41.97;;
56511;SDS011;42408;53.238;5.686;2023-02-22T08:12:02;88.10;;;40.57;;
56511;SDS011;42408;53.238;5.686;2023-02-22T08:14:28;81.77;;;40.43;;
56511;SDS011;42408;53.238;5.686;2023-02-22T08:16:53;87.63;;;41.77;;
56511;SDS011;42408;53.238;5.686;2023-02-22T08:19:19;83.10;;;40.90;;
56511;SDS011;42408;53.238;5.686;2023-02-22T08:21:44;89.17;;;41.77;;
56511;SDS011;42408;53.238;5.686;2023-02-22T08:24:10;83.80;;;41.60;;
56511;SDS011;42408;53.238;5.686;2023-02-22T08:26:36;90.87;;;41.67;;
56511;SDS011;42408;53.238;5.686;2023-02-22T08:29:01;97.53;;;43.57;;
56511;SDS011;42408;53.238;5.686;2023-02-22T08:31:27;88.60;;;41.27;;
56511;SDS011;42408;53.238;5.686;2023-02-22T08:33:53;87.37;;;42.13;;
56511;SDS011;42408;53.238;5.686;2023-02-22T08:36:18;90.00;;;42.50;;
56511;SDS011;42408;53.238;5.686;2023-02-22T08:38:44;94.07;;;43.97;;
56511;SDS011;42408;53.238;5.686;2023-02-22T08:41:09;94.63;;;42.33;;
56511;SDS011;42408;53.238;5.686;2023-02-22T08:43:35;92.07;;;44.93;;
56511;SDS011;42408;53.238;5.686;2023-02-22T08:46:01;83.40;;;41.53;;
56511;SDS011;42408;53.238;5.686;2023-02-22T08:48:26;93.20;;;43.97;;
56511;SDS011;42408;53.238;5.686;2023-02-22T08:50:52;97.67;;;43.83;;
56511;SDS011;42408;53.238;5.686;2023-02-22T08:53:18;99.57;;;44.13;;
56511;SDS011;42408;53.238;5.686;2023-02-22T08:55:44;90.03;;;44.03;;
56511;SDS011;42408;53.238;5.686;2023-02-22T08:58:10;97.77;;;45.03;;
56511;SDS011;42408;53.238;5.686;2023-02-22T09:00:37;93.45;;;43.72;;
56511;SDS011;42408;53.238;5.686;2023-02-22T09:03:05;106.43;;;47.47;;
56511;SDS011;42408;53.238;5.686;2023-02-22T09:05:33;100.18;;;45.63;;
56511;SDS011;42408;53.238;5.686;2023-02-22T09:07:59;108.37;;;46.13;;
56511;SDS011;42408;53.238;5.686;2023-02-22T09:10:26;101.53;;;44.78;;
56511;SDS011;42408;53.238;5.686;2023-02-22T09:12:54;100.47;;;46.95;;
56511;SDS011;42408;53.238;5.686;2023-02-22T09:15:21;102.18;;;48.75;;
56511;SDS011;42408;53.238;5.686;2023-02-22T09:17:47;109.25;;;50.78;;
56511;SDS011;42408;53.238;5.686;2023-02-22T09:20:15;109.70;;;49.47;;
56511;SDS011;42408;53.238;5.686;2023-02-22T09:22:46;113.18;;;49.08;;
56511;SDS011;42408;53.238;5.686;2023-02-22T09:25:12;118.63;;;51.47;;
56511;SDS011;42408;53.238;5.686;2023-02-22T09:27:38;109.17;;;48.83;;
56511;SDS011;42408;53.238;5.686;2023-02-22T09:30:04;121.17;;;51.47;;
56511;SDS011;42408;53.238;5.686;2023-02-22T09:32:35;114.82;;;51.17;;
56511;SDS011;42408;53.238;5.686;2023-02-22T09:35:00;124.30;;;52.47;;
56511;SDS011;42408;53.238;5.686;2023-02-22T09:37:26;113.90;;;49.77;;
56511;SDS011;42408;53.238;5.686;2023-02-22T09:39:52;106.57;;;49.13;;
56511;SDS011;42408;53.238;5.686;2023-02-22T09:43:00;112.93;;;49.80;;
56511;SDS011;42408;53.238;5.686;2023-02-22T09:45:13;117.05;;;49.60;;
56511;SDS011;42408;53.238;5.686;2023-02-22T09:47:48;113.93;;;52.05;;
56511;SDS011;42408;53.238;5.686;2023-02-22T09:50:21;109.45;;;48.35;;
56511;SDS011;42408;53.238;5.686;2023-02-22T09:55:47;125.25;;;50.30;;
56511;SDS011;42408;53.238;5.686;2023-02-22T09:58:30;123.97;;;50.17;;
56511;SDS011;42408;53.238;5.686;2023-02-22T10:06:35;113.78;;;50.17;;
56511;SDS011;42408;53.238;5.686;2023-02-22T10:09:03;108.95;;;47.88;;
56511;SDS011;42408;53.238;5.686;2023-02-22T10:16:39;102.38;;;48.13;;
56511;SDS011;42408;53.238;5.686;2023-02-22T10:19:27;112.10;;;48.85;;
56511;SDS011;42408;53.238;5.686;2023-02-22T10:27:21;110.32;;;47.08;;
56511;SDS011;42408;53.238;5.686;2023-02-22T10:29:53;116.65;;;49.20;;
56511;SDS011;42408;53.238;5.686;2023-02-22T10:32:39;108.20;;;48.28;;
56511;SDS011;42408;53.238;5.686;2023-02-22T10:35:17;109.80;;;47.00;;
56511;SDS011;42408;53.238;5.686;2023-02-22T10:37:47;110.60;;;48.25;;
56511;SDS011;42408;53.238;5.686;2023-02-22T10:40:21;100.80;;;46.10;;
56511;SDS011;42408;53.238;5.686;2023-02-22T10:43:03;98.30;;;44.88;;
56511;SDS011;42408;53.238;5.686;2023-02-22T10:45:31;98.07;;;45.85;;
56511;SDS011;42408;53.238;5.686;2023-02-22T10:48:09;102.45;;;45.80;;
56511;SDS011;42408;53.238;5.686;2023-02-22T10:50:42;106.60;;;45.90;;
56511;SDS011;42408;53.238;5.686;2023-02-22T10:53:10;105.63;;;45.97;;
56511;SDS011;42408;53.238;5.686;2023-02-22T10:58:40;108.88;;;45.72;;
56511;SDS011;42408;53.238;5.686;2023-02-22T11:06:31;109.82;;;47.83;;
56511;SDS011;42408;53.238;5.686;2023-02-22T11:09:12;98.97;;;45.30;;
56511;SDS011;42408;53.238;5.686;2023-02-22T11:11:42;102.78;;;45.30;;
56511;SDS011;42408;53.238;5.686;2023-02-22T11:14:11;106.13;;;45.17;;
56511;SDS011;42408;53.238;5.686;2023-02-22T11:16:49;105.78;;;45.70;;
56511;SDS011;42408;53.238;5.686;2023-02-22T11:19:21;94.60;;;42.55;;
56511;SDS011;42408;53.238;5.686;2023-02-22T11:22:10;101.22;;;44.35;;
56511;SDS011;42408;53.238;5.686;2023-02-22T11:24:35;94.03;;;43.20;;
56511;SDS011;42408;53.238;5.686;2023-02-22T11:27:21;103.38;;;45.15;;
56511;SDS011;42408;53.238;5.686;2023-02-22T11:29:57;95.35;;;43.95;;
56511;SDS011;42408;53.238;5.686;2023-02-22T11:32:34;101.32;;;45.97;;
56511;SDS011;42408;53.238;5.686;2023-02-22T11:38:21;103.95;;;44.63;;
56511;SDS011;42408;53.238;5.686;2023-02-22T11:41:11;103.18;;;43.50;;
56511;SDS011;42408;53.238;5.686;2023-02-22T11:43:43;95.13;;;44.15;;
56511;SDS011;42408;53.238;5.686;2023-02-22T11:48:41;91.15;;;43.42;;
56511;SDS011;42408;53.238;5.686;2023-02-22T11:56:44;89.90;;;41.33;;
56511;SDS011;42408;53.238;5.686;2023-02-22T11:59:18;88.85;;;41.33;;
56511;SDS011;42408;53.238;5.686;2023-02-22T12:13:16;89.50;;;38.70;;
56511;SDS011;42408;53.238;5.686;2023-02-22T12:18:46;92.00;;;38.65;;
56511;SDS011;42408;53.238;5.686;2023-02-22T12:21:29;88.55;;;40.58;;
56511;SDS011;42408;53.238;5.686;2023-02-22T12:24:00;86.72;;;39.65;;
56511;SDS011;42408;53.238;5.686;2023-02-22T12:26:45;87.80;;;40.60;;
56511;SDS011;42408;53.238;5.686;2023-02-22T12:32:13;90.03;;;42.40;;
56511;SDS011;42408;53.238;5.686;2023-02-22T12:34:59;89.75;;;40.40;;
56511;SDS011;42408;53.238;5.686;2023-02-22T12:37:44;86.40;;;40.28;;
56511;SDS011;42408;53.238;5.686;2023-02-22T12:40:18;76.68;;;38.22;;
56511;SDS011;42408;53.238;5.686;2023-02-22T12:43:01;89.60;;;40.95;;
56511;SDS011;42408;53.238;5.686;2023-02-22T12:45:51;87.35;;;40.90;;
56511;SDS011;42408;53.238;5.686;2023-02-22T12:51:38;95.15;;;41.20;;
56511;SDS011;42408;53.238;5.686;2023-02-22T12:57:10;90.00;;;38.40;;
56511;SDS011;42408;53.238;5.686;2023-02-22T12:59:45;102.07;;;42.60;;
56511;SDS011;42408;53.238;5.686;2023-02-22T13:02:36;89.55;;;40.40;;
56511;SDS011;42408;53.238;5.686;2023-02-22T13:05:12;80.63;;;39.40;;
56511;SDS011;42408;53.238;5.686;2023-02-22T13:21:17;89.90;;;39.75;;
56511;SDS011;42408;53.238;5.686;2023-02-22T13:26:40;87.57;;;39.03;;
56511;SDS011;42408;53.238;5.686;2023-02-22T13:37:32;81.03;;;38.55;;
56511;SDS011;42408;53.238;5.686;2023-02-22T13:48:35;95.65;;;37.67;;
56511;SDS011;42408;53.238;5.686;2023-02-22T13:53:53;85.63;;;38.65;;
56511;SDS011;42408;53.238;5.686;2023-02-22T13:56:31;84.55;;;38.00;;
56511;SDS011;42408;53.238;5.686;2023-02-22T13:58:58;93.17;;;39.57;;
56511;SDS011;42408;53.238;5.686;2023-02-22T14:06:43;95.95;;;39.17;;
56511;SDS011;42408;53.238;5.686;2023-02-22T14:09:13;93.55;;;41.17;;
56511;SDS011;42408;53.238;5.686;2023-02-22T14:11:43;95.80;;;41.13;;
56511;SDS011;42408;53.238;5.686;2023-02-22T14:14:12;94.32;;;39.40;;
56511;SDS011;42408;53.238;5.686;2023-02-22T14:16:38;94.97;;;40.05;;
56511;SDS011;42408;53.238;5.686;2023-02-22T14:21:33;98.05;;;42.47;;
56511;SDS011;42408;53.238;5.686;2023-02-22T14:24:10;93.90;;;41.53;;
56511;SDS011;42408;53.238;5.686;2023-02-22T14:26:40;94.55;;;40.15;;
56511;SDS011;42408;53.238;5.686;2023-02-22T14:29:17;98.30;;;39.47;;
56511;SDS011;42408;53.238;5.686;2023-02-22T14:37:02;94.47;;;38.28;;
56511;SDS011;42408;53.238;5.686;2023-02-22T14:41:58;95.05;;;38.60;;
56511;SDS011;42408;53.238;5.686;2023-02-22T14:44:31;102.07;;;38.53;;
56511;SDS011;42408;53.238;5.686;2023-02-22T14:47:05;94.75;;;41.10;;
56511;SDS011;42408;53.238;5.686;2023-02-22T14:49:39;92.60;;;41.55;;
56511;SDS011;42408;53.238;5.686;2023-02-22T14:52:16;108.15;;;41.90;;
56511;SDS011;42408;53.238;5.686;2023-02-22T14:54:49;93.22;;;38.03;;
56511;SDS011;42408;53.238;5.686;2023-02-22T14:57:57;90.18;;;37.35;;
56511;SDS011;42408;53.238;5.686;2023-02-22T15:00:36;82.90;;;36.67;;
56511;SDS011;42408;53.238;5.686;2023-02-22T15:03:10;88.60;;;38.95;;
56511;SDS011;42408;53.238;5.686;2023-02-22T15:05:51;82.55;;;35.55;;
56511;SDS011;42408;53.238;5.686;2023-02-22T15:08:17;76.50;;;36.13;;
56511;SDS011;42408;53.238;5.686;2023-02-22T15:10:52;82.55;;;36.65;;
56511;SDS011;42408;53.238;5.686;2023-02-22T15:13:20;80.75;;;36.47;;
56511;SDS011;42408;53.238;5.686;2023-02-22T15:15:53;89.05;;;38.47;;
56511;SDS011;42408;53.238;5.686;2023-02-22T15:20:47;78.57;;;35.17;;
56511;SDS011;42408;53.238;5.686;2023-02-22T15:23:20;90.03;;;35.78;;
56511;SDS011;42408;53.238;5.686;2023-02-22T15:25:48;79.97;;;36.17;;
56511;SDS011;42408;53.238;5.686;2023-02-22T15:28:14;81.97;;;37.70;;
56511;SDS011;42408;53.238;5.686;2023-02-22T15:30:42;86.53;;;36.72;;
56511;SDS011;42408;53.238;5.686;2023-02-22T15:33:27;91.10;;;37.58;;
56511;SDS011;42408;53.238;5.686;2023-02-22T15:35:56;85.03;;;36.13;;
56511;SDS011;42408;53.238;5.686;2023-02-22T15:38:28;99.47;;;42.10;;
56511;SDS011;42408;53.238;5.686;2023-02-22T15:41:01;88.03;;;39.83;;
56511;SDS011;42408;53.238;5.686;2023-02-22T15:43:28;83.97;;;35.65;;
56511;SDS011;42408;53.238;5.686;2023-02-22T15:45:56;81.72;;;34.65;;
56511;SDS011;42408;53.238;5.686;2023-02-22T15:48:24;82.72;;;35.67;;
56511;SDS011;42408;53.238;5.686;2023-02-22T15:51:11;80.10;;;36.03;;
56511;SDS011;42408;53.238;5.686;2023-02-22T15:53:48;85.72;;;34.80;;
56511;SDS011;42408;53.238;5.686;2023-02-22T15:56:26;84.20;;;37.70;;
56511;SDS011;42408;53.238;5.686;2023-02-22T15:59:15;87.80;;;36.85;;
56511;SDS011;42408;53.238;5.686;2023-02-22T16:01:45;86.50;;;35.58;;
56511;SDS011;42408;53.238;5.686;2023-02-22T16:04:16;84.20;;;38.00;;
56511;SDS011;42408;53.238;5.686;2023-02-22T16:06:44;90.07;;;36.92;;
56511;SDS011;42408;53.238;5.686;2023-02-22T16:09:12;87.82;;;39.85;;
56511;SDS011;42408;53.238;5.686;2023-02-22T16:11:42;80.38;;;35.72;;
56511;SDS011;42408;53.238;5.686;2023-02-22T16:14:26;84.35;;;36.17;;
56511;SDS011;42408;53.238;5.686;2023-02-22T16:19:55;82.88;;;34.25;;
56511;SDS011;42408;53.238;5.686;2023-02-22T16:25:10;80.05;;;34.42;;
56511;SDS011;42408;53.238;5.686;2023-02-22T16:27:49;92.82;;;36.95;;
56511;SDS011;42408;53.238;5.686;2023-02-22T16:35:09;85.03;;;37.00;;
56511;SDS011;42408;53.238;5.686;2023-02-22T16:37:51;96.68;;;37.22;;
56511;SDS011;42408;53.238;5.686;2023-02-22T16:42:56;84.65;;;36.42;;
56511;SDS011;42408;53.238;5.686;2023-02-22T16:45:23;84.68;;;37.78;;
56511;SDS011;42408;53.238;5.686;2023-02-22T16:47:49;95.43;;;36.35;;
56511;SDS011;42408;53.238;5.686;2023-02-22T16:50:17;83.00;;;37.75;;
56511;SDS011;42408;53.238;5.686;2023-02-22T16:52:43;89.32;;;37.75;;
56511;SDS011;42408;53.238;5.686;2023-02-22T16:55:10;89.10;;;37.43;;
56511;SDS011;42408;53.238;5.686;2023-02-22T16:57:38;96.03;;;37.65;;
56511;SDS011;42408;53.238;5.686;2023-02-22T17:00:10;94.75;;;39.42;;
56511;SDS011;42408;53.238;5.686;2023-02-22T17:02:39;91.07;;;37.95;;
56511;SDS011;42408;53.238;5.686;2023-02-22T17:05:05;89.43;;;38.50;;
56511;SDS011;42408;53.238;5.686;2023-02-22T17:07:31;90.78;;;38.53;;
56511;SDS011;42408;53.238;5.686;2023-02-22T17:09:57;93.83;;;41.03;;
56511;SDS011;42408;53.238;5.686;2023-02-22T17:12:26;98.23;;;40.10;;
56511;SDS011;42408;53.238;5.686;2023-02-22T17:14:53;98.18;;;37.40;;
56511;SDS011;42408;53.238;5.686;2023-02-22T17:17:19;81.07;;;34.92;;
56511;SDS011;42408;53.238;5.686;2023-02-22T17:19:45;101.77;;;37.90;;
56511;SDS011;42408;53.238;5.686;2023-02-22T17:22:17;84.93;;;35.23;;
56511;SDS011;42408;53.238;5.686;2023-02-22T17:24:44;82.50;;;34.25;;
56511;SDS011;42408;53.238;5.686;2023-02-22T17:27:10;76.67;;;34.77;;
56511;SDS011;42408;53.238;5.686;2023-02-22T17:29:36;81.28;;;33.55;;
56511;SDS011;42408;53.238;5.686;2023-02-22T17:32:02;73.70;;;31.77;;
56511;SDS011;42408;53.238;5.686;2023-02-22T17:34:28;75.93;;;33.85;;